Time;durP1;ratioP1;P1;durP2;ratioP2;P2;SDS_P1;SDS_P2;PMS_P1;PMS_P2;Temp;Humidity;BMP_temperature;BMP_pressure;BME280_temperature;BME280_humidity;BME280_pressure;Samples;Min_cycle;Max_cycle;Signal;HPM_P1;HPM_P2
2024/02/19 00:01:17;;;;;;;;;;;;;;;22.97;17.96;98962.53;5093426;28;19916;-78
2024/02/19 00:03:44;;;;;;;;;;;;;;;23.22;17.72;98961.25;5092991;28;19920;-78
2024/02/19 00:06:10;;;;;;;;;;;;;;;23.54;17.31;98951.91;5097995;28;19923;-78
2024/02/19 00:08:37;;;;;;;;;;;;;;;23.22;17.89;98952.84;5105927;28;19915;-79
2024/02/19 00:11:03;;;;;;;;;;;;;;;23.18;17.36;98943.66;5114054;28;19964;-78
2024/02/19 00:13:29;;;;;;;;;;;;;;;23.32;17.55;98931.59;5112085;28;19920;-78
2024/02/19 00:15:55;;;;;;;;;;;;;;;23.47;17.36;98933.13;5113804;28;20284;-78
2024/02/19 00:18:21;;;;;;;;;;;;;;;23.52;17.73;98923.50;5113523;28;20008;-79
2024/02/19 00:20:47;;;;;;;;;;;;;;;23.61;17.36;98927.44;5113852;28;20281;-78
2024/02/19 00:23:13;;;;;;;;;;;;;;;23.76;17.52;98923.31;5113435;28;19993;-78
2024/02/19 00:25:40;;;;;;;;;;;;;;;23.76;17.12;98928.13;5108768;28;19920;-79
2024/02/19 00:28:07;;;;;;;;;;;;;;;23.20;17.56;98924.44;5093222;28;20381;-78
2024/02/19 00:30:33;;;;;;;;;;;;;;;23.14;18.04;98912.06;5093575;28;20007;-79
2024/02/19 00:33:01;;;;;;;;;;;;;;;23.41;17.28;98917.94;5093293;28;19960;-79
2024/02/19 00:35:27;;;;;;;;;;;;;;;23.53;17.44;98911.06;5092928;28;20397;-78
2024/02/19 00:37:53;;;;;;;;;;;;;;;23.56;17.32;98908.25;5092889;28;19936;-78
2024/02/19 00:40:19;;;;;;;;;;;;;;;23.52;17.03;98901.88;5075165;28;19916;-79
2024/02/19 00:42:45;;;;;;;;;;;;;;;23.65;17.11;98910.59;5076460;28;20385;-79
2024/02/19 00:45:12;;;;;;;;;;;;;;;23.67;17.20;98911.78;5096824;28;20301;-79
2024/02/19 00:47:38;;;;;;;;;;;;;;;23.75;17.00;98899.31;5097769;28;20334;-79
2024/02/19 00:50:05;;;;;;;;;;;;;;;23.78;16.96;98898.47;5097080;28;19970;-79
2024/02/19 00:52:31;;;;;;;;;;;;;;;23.75;17.04;98899.31;5105552;28;20266;-79
2024/02/19 00:54:57;;;;;;;;;;;;;;;23.72;16.93;98891.72;5117525;28;20397;-79
2024/02/19 00:57:23;;;;;;;;;;;;;;;23.32;16.99;98895.16;5117754;28;19916;-79
2024/02/19 00:59:49;;;;;;;;;;;;;;;23.40;16.86;98887.53;5110536;28;19916;-79
2024/02/19 01:02:16;;;;;;;;;;;;;;;23.52;16.74;98884.25;5103516;28;19916;-78
2024/02/19 01:04:42;;;;;;;;;;;;;;;23.32;16.99;98879.13;5116455;28;19951;-79
2024/02/19 01:07:08;;;;;;;;;;;;;;;23.20;17.20;98884.41;5117213;28;19961;-78
2024/02/19 01:09:34;;;;;;;;;;;;;;;23.28;17.30;98886.78;5096957;28;19923;-78
2024/02/19 01:12:00;;;;;;;;;;;;;;;23.39;16.98;98883.94;5096817;28;19916;-78
2024/02/19 01:14:26;;;;;;;;;;;;;;;23.44;17.28;98871.47;5096647;28;19924;-78
2024/02/19 01:16:52;;;;;;;;;;;;;;;23.51;16.84;98871.44;5102994;28;19922;-78
2024/02/19 01:19:18;;;;;;;;;;;;;;;23.45;17.20;98862.69;5116181;28;19916;-78
2024/02/19 01:21:44;;;;;;;;;;;;;;;23.52;16.91;98857.03;5097844;28;19952;-79
2024/02/19 01:24:11;;;;;;;;;;;;;;;23.56;16.79;98852.19;5116758;28;19920;-78
2024/02/19 01:26:37;;;;;;;;;;;;;;;23.10;17.09;98848.88;5116797;28;20387;-79
2024/02/19 01:29:03;;;;;;;;;;;;;;;22.39;17.64;98854.72;5116797;28;19948;-78
2024/02/19 01:31:29;;;;;;;;;;;;;;;22.24;17.63;98847.56;5113473;28;19916;-78
2024/02/19 01:33:55;;;;;;;;;;;;;;;22.43;17.62;98837.91;5098510;28;19920;-79
2024/02/19 01:36:21;;;;;;;;;;;;;;;22.43;17.86;98829.53;5107584;28;19916;-78
2024/02/19 01:38:47;;;;;;;;;;;;;;;22.70;17.90;98825.06;5099337;28;19916;-79
2024/02/19 01:41:13;;;;;;;;;;;;;;;23.02;17.32;98824.91;5096001;28;19916;-79
2024/02/19 01:43:39;;;;;;;;;;;;;;;23.05;17.53;98826.88;5095981;28;19916;-79
2024/02/19 01:46:06;;;;;;;;;;;;;;;23.12;17.46;98821.25;5096295;28;20045;-79
2024/02/19 01:48:32;;;;;;;;;;;;;;;22.74;17.89;98822.25;5096031;28;19916;-79
2024/02/19 01:51:00;;;;;;;;;;;;;;;22.59;18.13;98815.91;5103686;28;20555;-79
2024/02/19 01:53:26;;;;;;;;;;;;;;;22.44;18.20;98809.56;5115090;28;19919;-79
2024/02/19 01:55:52;;;;;;;;;;;;;;;22.65;18.11;98801.09;5115131;28;20296;-78
2024/02/19 01:58:18;;;;;;;;;;;;;;;22.71;17.78;98806.28;5116220;28;20389;-79
2024/02/19 02:00:45;;;;;;;;;;;;;;;22.90;17.49;98800.16;5111594;28;20378;-79
2024/02/19 02:03:14;;;;;;;;;;;;;;;23.00;17.68;98802.91;5095555;28;19916;-79
2024/02/19 02:05:40;;;;;;;;;;;;;;;23.21;17.48;98801.97;5112580;28;20286;-79
2024/02/19 02:08:09;;;;;;;;;;;;;;;23.32;17.02;98797.88;5114087;28;20293;-78
2024/02/19 02:10:35;;;;;;;;;;;;;;;23.38;17.31;98789.88;5112509;28;20370;-78
2024/02/19 02:13:01;;;;;;;;;;;;;;;23.41;16.72;98791.81;5096473;28;20267;-79
2024/02/19 02:15:27;;;;;;;;;;;;;;;23.40;16.93;98781.84;5095825;28;19962;-79
2024/02/19 02:17:53;;;;;;;;;;;;;;;23.33;16.86;98779.88;5095496;28;19920;-79
2024/02/19 02:20:19;;;;;;;;;;;;;;;23.07;17.05;98774.06;5095334;28;20366;-79
2024/02/19 02:22:47;;;;;;;;;;;;;;;23.21;16.65;98769.16;5095221;28;19963;-79
2024/02/19 02:25:13;;;;;;;;;;;;;;;23.02;16.87;98771.69;5104506;28;20011;-78
2024/02/19 02:27:39;;;;;;;;;;;;;;;23.08;17.01;98770.06;5114248;28;19916;-79
2024/02/19 02:30:06;;;;;;;;;;;;;;;23.02;16.96;98766.88;5115875;28;20014;-79
2024/02/19 02:32:33;;;;;;;;;;;;;;;22.50;17.55;98759.53;5103386;28;19916;-79
2024/02/19 02:34:59;;;;;;;;;;;;;;;21.44;18.27;98761.78;5095087;28;19959;-79
2024/02/19 02:37:26;;;;;;;;;;;;;;;21.54;18.79;98755.41;5095056;28;20322;-79
2024/02/19 02:39:53;;;;;;;;;;;;;;;21.78;18.67;98744.19;5094644;28;19916;-79
2024/02/19 02:42:19;;;;;;;;;;;;;;;22.21;17.88;98744.91;5095620;28;19923;-78
2024/02/19 02:44:45;;;;;;;;;;;;;;;22.69;18.01;98737.50;5095859;28;19920;-78
2024/02/19 02:47:11;;;;;;;;;;;;;;;23.03;17.89;98740.47;5095097;28;19916;-78
2024/02/19 02:49:37;;;;;;;;;;;;;;;22.34;17.92;98731.25;5094845;28;19958;-79
2024/02/19 02:52:03;;;;;;;;;;;;;;;22.02;18.47;98732.19;5094871;28;19981;-78
2024/02/19 02:54:29;;;;;;;;;;;;;;;20.79;19.28;98726.63;5094209;28;19920;-78
2024/02/19 02:56:55;;;;;;;;;;;;;;;20.52;19.56;98723.38;5110503;28;20014;-79
2024/02/19 02:59:22;;;;;;;;;;;;;;;21.15;19.76;98711.53;5109726;28;19920;-78
2024/02/19 03:01:48;;;;;;;;;;;;;;;21.02;19.67;98710.31;5095916;28;19917;-79
2024/02/19 03:04:14;;;;;;;;;;;;;;;21.62;19.52;98707.50;5099299;28;19922;-78
2024/02/19 03:06:40;;;;;;;;;;;;;;;22.01;19.65;98697.03;5093718;28;19912;-78
2024/02/19 03:09:06;;;;;;;;;;;;;;;21.93;19.69;98691.88;5129156;27;19919;-78
2024/02/19 03:11:32;;;;;;;;;;;;;;;22.03;19.46;98689.00;5135508;27;19976;-78
2024/02/19 03:13:58;;;;;;;;;;;;;;;21.65;20.16;98683.53;5135216;27;19911;-78
2024/02/19 03:16:24;;;;;;;;;;;;;;;22.05;19.80;98683.03;5112488;27;20014;-78
2024/02/19 03:18:50;;;;;;;;;;;;;;;22.21;19.50;98679.75;5095630;28;19962;-79
2024/02/19 03:21:17;;;;;;;;;;;;;;;22.02;20.00;98678.25;5094101;28;19916;-78
2024/02/19 03:23:48;;;;;;;;;;;;;;;22.04;20.02;98678.63;5093823;28;19923;-78
2024/02/19 03:26:15;;;;;;;;;;;;;;;22.16;19.99;98669.78;5093991;28;20014;-78
2024/02/19 03:28:42;;;;;;;;;;;;;;;22.32;19.88;98667.31;5094211;28;19923;-78
2024/02/19 03:31:08;;;;;;;;;;;;;;;22.37;19.93;98663.28;5094394;28;20011;-79
2024/02/19 03:33:34;;;;;;;;;;;;;;;22.34;20.02;98659.31;5093730;28;19963;-78
2024/02/19 03:36:00;;;;;;;;;;;;;;;21.84;20.54;98649.56;5095291;28;19916;-79
2024/02/19 03:38:26;;;;;;;;;;;;;;;21.95;20.74;98653.13;5093574;28;19962;-78
2024/02/19 03:40:53;;;;;;;;;;;;;;;22.18;20.36;98652.59;5093763;28;20283;-78
2024/02/19 03:43:19;;;;;;;;;;;;;;;22.58;20.07;98652.78;5093500;28;19920;-78
2024/02/19 03:45:45;;;;;;;;;;;;;;;22.62;20.15;98650.75;5093599;28;19942;-78
2024/02/19 03:48:11;;;;;;;;;;;;;;;22.80;20.01;98641.44;5093921;28;20373;-78
2024/02/19 03:50:37;;;;;;;;;;;;;;;23.11;19.91;98645.97;5107540;28;20301;-78
2024/02/19 03:53:03;;;;;;;;;;;;;;;23.45;19.48;98646.06;5112029;28;20379;-79
2024/02/19 03:55:29;;;;;;;;;;;;;;;23.70;19.30;98633.38;5113977;28;20019;-78
2024/02/19 03:57:55;;;;;;;;;;;;;;;23.61;19.69;98644.31;5112047;28;20404;-78
2024/02/19 04:00:21;;;;;;;;;;;;;;;23.62;19.69;98631.84;5114152;28;19916;-78
2024/02/19 04:02:48;;;;;;;;;;;;;;;23.42;19.91;98632.88;5113942;28;20002;-78
2024/02/19 04:05:14;;;;;;;;;;;;;;;23.68;19.51;98621.78;5113771;28;19923;-78
2024/02/19 04:07:40;;;;;;;;;;;;;;;24.01;19.47;98628.59;5081952;28;19919;-78
2024/02/19 04:10:06;;;;;;;;;;;;;;;24.10;19.14;98620.50;5094557;28;20297;-78
2024/02/19 04:12:32;;;;;;;;;;;;;;;23.69;19.76;98619.75;5093360;28;20356;-78
2024/02/19 04:14:58;;;;;;;;;;;;;;;23.72;19.66;98613.31;5093293;28;19963;-78
2024/02/19 04:17:26;;;;;;;;;;;;;;;23.87;19.91;98609.94;5093302;28;19970;-78
2024/02/19 04:19:55;;;;;;;;;;;;;;;24.43;19.25;98599.97;5093499;28;20019;-78
2024/02/19 04:22:21;;;;;;;;;;;;;;;24.04;19.49;98596.88;5092977;28;19920;-78
2024/02/19 04:24:47;;;;;;;;;;;;;;;24.40;19.26;98594.41;5093728;28;20407;-78
2024/02/19 04:27:14;;;;;;;;;;;;;;;24.35;19.23;98597.69;5094440;28;19920;-78
2024/02/19 04:29:40;;;;;;;;;;;;;;;24.52;19.15;98583.38;5093281;28;19916;-78
2024/02/19 04:32:06;;;;;;;;;;;;;;;24.57;19.12;98582.13;5093259;28;19923;-78
2024/02/19 04:34:32;;;;;;;;;;;;;;;24.34;19.48;98577.22;5107773;28;19920;-79
2024/02/19 04:36:58;;;;;;;;;;;;;;;24.82;19.20;98567.69;5098199;28;20285;-78
2024/02/19 04:39:24;;;;;;;;;;;;;;;24.84;18.87;98559.63;5105481;28;19916;-78
2024/02/19 04:41:51;;;;;;;;;;;;;;;24.52;19.28;98569.34;5098214;28;19960;-78
2024/02/19 04:44:17;;;;;;;;;;;;;;;24.37;19.42;98572.78;5093872;28;19921;-78
2024/02/19 04:46:43;;;;;;;;;;;;;;;24.56;19.44;98567.28;5093427;28;19920;-78
2024/02/19 04:49:09;;;;;;;;;;;;;;;24.54;19.28;98564.09;5093130;28;19952;-78
2024/02/19 04:51:35;;;;;;;;;;;;;;;24.48;19.17;98554.56;5092933;28;19912;-78
2024/02/19 04:54:04;;;;;;;;;;;;;;;24.67;19.43;98559.47;5093383;28;20325;-78
2024/02/19 04:56:30;;;;;;;;;;;;;;;25.02;18.60;98554.50;5092753;28;20023;-78
2024/02/19 04:58:56;;;;;;;;;;;;;;;24.98;18.88;98554.53;5108094;28;20420;-78
2024/02/19 05:01:22;;;;;;;;;;;;;;;24.81;19.42;98549.25;5085710;28;19946;-78
2024/02/19 05:03:48;;;;;;;;;;;;;;;25.08;18.94;98535.91;5098977;28;20357;-78
2024/02/19 05:06:14;;;;;;;;;;;;;;;25.22;18.62;98541.25;5113236;28;19915;-78
2024/02/19 05:08:40;;;;;;;;;;;;;;;25.40;18.47;98533.25;5107980;28;20365;-79
2024/02/19 05:11:06;;;;;;;;;;;;;;;25.30;18.57;98537.88;5113331;28;19915;-79
2024/02/19 05:13:36;;;;;;;;;;;;;;;25.39;18.65;98526.84;5113279;28;19920;-79
2024/02/19 05:16:02;;;;;;;;;;;;;;;25.52;18.10;98535.47;5096214;28;19957;-78
2024/02/19 05:18:29;;;;;;;;;;;;;;;25.59;18.20;98528.91;5094089;28;19920;-79
2024/02/19 05:20:55;;;;;;;;;;;;;;;25.25;18.46;98529.94;5092719;28;19912;-78
2024/02/19 05:23:21;;;;;;;;;;;;;;;25.36;18.55;98522.09;5094072;28;20396;-78
2024/02/19 05:25:47;;;;;;;;;;;;;;;25.03;19.02;98522.34;5092733;28;19920;-78
2024/02/19 05:28:13;;;;;;;;;;;;;;;24.76;18.89;98521.63;5092829;28;19927;-78
2024/02/19 05:30:39;;;;;;;;;;;;;;;23.79;19.92;98526.31;5096498;28;19916;-78
2024/02/19 05:33:05;;;;;;;;;;;;;;;23.73;20.14;98514.78;5113118;28;19916;-78
2024/02/19 05:35:31;;;;;;;;;;;;;;;23.75;20.06;98517.16;5114561;28;19916;-78
2024/02/19 05:37:57;;;;;;;;;;;;;;;23.71;20.29;98517.19;5116484;28;19920;-78
2024/02/19 05:40:23;;;;;;;;;;;;;;;23.76;20.06;98516.72;5096212;28;20239;-78
2024/02/19 05:42:49;;;;;;;;;;;;;;;24.03;19.63;98505.53;5096621;28;19962;-78
2024/02/19 05:45:15;;;;;;;;;;;;;;;24.67;19.08;98506.09;5095947;28;19920;-79
2024/02/19 05:47:42;;;;;;;;;;;;;;;25.10;18.75;98503.34;5077534;28;19916;-78
2024/02/19 05:50:09;;;;;;;;;;;;;;;24.71;18.97;98500.44;5096582;28;19916;-78
2024/02/19 05:52:35;;;;;;;;;;;;;;;24.44;19.44;98497.69;5097142;28;20403;-78
2024/02/19 05:55:03;;;;;;;;;;;;;;;24.00;19.84;98501.56;5096048;28;20023;-78
2024/02/19 05:57:29;;;;;;;;;;;;;;;24.14;19.77;98496.97;5095791;28;19916;-78
2024/02/19 05:59:55;;;;;;;;;;;;;;;23.85;20.28;98500.19;5095821;28;19916;-78
2024/02/19 06:02:21;;;;;;;;;;;;;;;23.77;20.17;98495.09;5115436;28;20000;-78
2024/02/19 06:04:47;;;;;;;;;;;;;;;23.28;20.56;98494.50;5116096;28;20293;-78
2024/02/19 06:07:13;;;;;;;;;;;;;;;23.59;20.34;98489.75;5097730;28;20061;-79
2024/02/19 06:09:40;;;;;;;;;;;;;;;23.11;21.09;98483.50;5107009;28;19938;-79
2024/02/19 06:12:08;;;;;;;;;;;;;;;22.79;21.56;98485.88;5116093;28;20043;-79
2024/02/19 06:14:34;;;;;;;;;;;;;;;22.75;21.54;98487.91;5119353;28;19920;-77
2024/02/19 06:17:00;;;;;;;;;;;;;;;23.54;20.82;98478.19;5120405;28;20430;-78
2024/02/19 06:19:26;;;;;;;;;;;;;;;22.90;21.49;98481.75;5115871;28;19927;-78
2024/02/19 06:21:52;;;;;;;;;;;;;;;23.07;21.67;98486.34;5115977;28;20359;-79
2024/02/19 06:24:18;;;;;;;;;;;;;;;23.91;20.61;98480.88;5096249;28;19963;-79
2024/02/19 06:26:44;;;;;;;;;;;;;;;24.75;19.71;98473.09;5096956;28;20002;-79
2024/02/19 06:29:10;;;;;;;;;;;;;;;24.79;19.74;98478.66;5095129;28;20006;-79
2024/02/19 06:31:37;;;;;;;;;;;;;;;25.21;19.03;98477.84;5110818;28;19922;-79
2024/02/19 06:34:03;;;;;;;;;;;;;;;25.54;19.19;98475.97;5115456;28;20329;-79
2024/02/19 06:36:29;;;;;;;;;;;;;;;25.86;18.80;98476.03;5108322;28;19916;-79
2024/02/19 06:38:55;;;;;;;;;;;;;;;26.18;18.42;98472.53;5103437;28;19938;-79
2024/02/19 06:41:21;;;;;;;;;;;;;;;26.33;18.69;98473.75;5113410;28;19912;-79
2024/02/19 06:43:48;;;;;;;;;;;;;;;26.28;18.88;98482.75;5083737;28;19927;-79
2024/02/19 06:46:14;;;;;;;;;;;;;;;26.04;18.81;98487.72;5094710;28;19961;-79
2024/02/19 06:48:41;;;;;;;;;;;;;;;25.99;18.81;98476.97;5108386;28;20323;-79
2024/02/19 06:51:07;;;;;;;;;;;;;;;26.02;18.66;98476.88;5115547;28;19916;-79
2024/02/19 06:53:33;;;;;;;;;;;;;;;25.76;18.92;98474.28;5115260;28;19950;-79
2024/02/19 06:56:00;;;;;;;;;;;;;;;25.91;19.31;98467.88;5095243;28;19920;-79
2024/02/19 06:58:26;;;;;;;;;;;;;;;26.21;18.89;98469.63;5095707;28;19962;-79
2024/02/19 07:00:52;;;;;;;;;;;;;;;26.58;18.68;98469.06;5095409;28;19951;-79
2024/02/19 07:03:18;;;;;;;;;;;;;;;26.81;18.48;98464.50;5111719;28;20367;-79
2024/02/19 07:05:44;;;;;;;;;;;;;;;26.57;18.62;98470.31;5114765;28;20373;-79
2024/02/19 07:08:12;;;;;;;;;;;;;;;26.36;19.16;98464.44;5114612;28;19916;-79
2024/02/19 07:10:38;;;;;;;;;;;;;;;25.84;19.37;98472.88;5094614;28;20273;-79
2024/02/19 07:13:04;;;;;;;;;;;;;;;26.19;19.16;98468.47;5094570;28;20293;-79
2024/02/19 07:15:30;;;;;;;;;;;;;;;26.41;18.91;98464.72;5095932;28;20437;-79
2024/02/19 07:17:56;;;;;;;;;;;;;;;26.47;18.73;98470.59;5113087;28;20007;-79
2024/02/19 07:20:22;;;;;;;;;;;;;;;26.60;18.59;98460.19;5114636;28;19956;-79
2024/02/19 07:22:48;;;;;;;;;;;;;;;26.59;18.59;98459.41;5096141;28;20288;-79
2024/02/19 07:25:14;;;;;;;;;;;;;;;26.83;18.12;98459.22;5114475;28;19923;-79
2024/02/19 07:27:40;;;;;;;;;;;;;;;26.92;18.44;98460.16;5114823;28;19916;-79
2024/02/19 07:30:09;;;;;;;;;;;;;;;27.07;18.28;98463.38;5095382;28;20483;-79
2024/02/19 07:32:35;;;;;;;;;;;;;;;26.81;19.74;98456.84;5093959;28;19916;-79
2024/02/19 07:35:01;;;;;;;;;;;;;;;26.53;19.83;98460.38;5094965;28;20289;-79
2024/02/19 07:37:27;;;;;;;;;;;;;;;26.64;19.80;98449.63;5105138;28;19915;-79
2024/02/19 07:39:53;;;;;;;;;;;;;;;26.83;19.49;98456.41;5104833;28;19946;-79
2024/02/19 07:42:19;;;;;;;;;;;;;;;27.00;18.92;98458.72;5114468;28;20284;-79
2024/02/19 07:44:45;;;;;;;;;;;;;;;26.91;19.39;98463.44;5107089;28;19920;-79
2024/02/19 07:47:11;;;;;;;;;;;;;;;27.01;19.20;98456.69;5094076;28;19916;-79
2024/02/19 07:49:37;;;;;;;;;;;;;;;26.84;19.41;98447.50;5093717;28;19938;-79
2024/02/19 07:52:03;;;;;;;;;;;;;;;26.92;19.55;98442.47;5094493;28;20011;-79
2024/02/19 07:54:29;;;;;;;;;;;;;;;26.93;20.32;98441.22;5093424;28;20289;-79
2024/02/19 07:56:56;;;;;;;;;;;;;;;26.87;20.12;98440.19;5093492;28;20450;-78
2024/02/19 07:59:22;;;;;;;;;;;;;;;26.56;20.27;98432.13;5093853;28;20361;-79
2024/02/19 08:01:49;;;;;;;;;;;;;;;26.65;20.22;98435.09;5093660;28;20262;-79
2024/02/19 08:04:15;;;;;;;;;;;;;;;26.78;20.12;98428.75;5106873;28;19967;-78
2024/02/19 08:06:41;;;;;;;;;;;;;;;26.97;19.94;98434.25;5113816;28;19927;-79
2024/02/19 08:09:07;;;;;;;;;;;;;;;27.16;19.61;98424.06;5111974;28;20373;-79
2024/02/19 08:11:33;;;;;;;;;;;;;;;27.41;19.40;98424.13;5105734;28;19927;-79
2024/02/19 08:13:59;;;;;;;;;;;;;;;27.86;19.48;98440.88;5093334;28;19924;-79
2024/02/19 08:16:25;;;;;;;;;;;;;;;27.69;19.63;98428.13;5075278;28;20054;-79
2024/02/19 08:18:52;;;;;;;;;;;;;;;27.51;20.03;98422.25;5093533;28;20400;-79
2024/02/19 08:21:18;;;;;;;;;;;;;;;27.36;20.06;98419.81;5095172;28;20567;-79
2024/02/19 08:23:44;;;;;;;;;;;;;;;27.51;20.43;98428.69;5113352;28;20342;-79
2024/02/19 08:26:10;;;;;;;;;;;;;;;27.59;19.90;98420.75;5112272;28;20289;-79
2024/02/19 08:28:36;;;;;;;;;;;;;;;27.77;20.27;98418.97;5102256;28;19920;-79
2024/02/19 08:31:02;;;;;;;;;;;;;;;27.80;19.62;98418.06;5093392;28;19912;-79
2024/02/19 08:33:28;;;;;;;;;;;;;;;27.76;20.65;98423.06;5093098;28;20373;-79
2024/02/19 08:35:54;;;;;;;;;;;;;;;28.04;20.44;98410.88;5093083;28;19923;-79
2024/02/19 08:38:20;;;;;;;;;;;;;;;28.36;20.17;98406.19;5093449;28;19919;-79
2024/02/19 08:40:46;;;;;;;;;;;;;;;28.37;20.22;98410.59;5075247;28;19923;-79
2024/02/19 08:43:12;;;;;;;;;;;;;;;28.55;20.41;98405.91;5093899;28;19999;-79
2024/02/19 08:45:39;;;;;;;;;;;;;;;28.74;20.30;98402.03;5093042;28;19920;-79
2024/02/19 08:48:06;;;;;;;;;;;;;;;28.96;20.11;98393.59;5093154;28;20289;-79
2024/02/19 08:50:32;;;;;;;;;;;;;;;28.65;20.62;98404.78;5093111;28;19917;-79
2024/02/19 08:52:58;;;;;;;;;;;;;;;28.58;20.39;98393.72;5092875;28;19927;-79
2024/02/19 08:55:24;;;;;;;;;;;;;;;28.64;21.09;98394.72;5093381;28;19919;-79
2024/02/19 08:57:50;;;;;;;;;;;;;;;28.83;20.67;98392.03;5092873;28;20296;-79
2024/02/19 09:00:16;;;;;;;;;;;;;;;28.54;20.58;98392.25;5094210;28;20385;-79
2024/02/19 09:02:42;;;;;;;;;;;;;;;28.73;21.01;98385.53;5092952;28;20023;-79
2024/02/19 09:05:11;;;;;;;;;;;;;;;28.90;20.60;98381.28;5112674;28;19981;-79
2024/02/19 09:07:37;;;;;;;;;;;;;;;28.45;21.28;98381.63;5117215;28;19919;-79
2024/02/19 09:10:04;;;;;;;;;;;;;;;28.62;20.96;98380.25;5117043;28;19926;-79
2024/02/19 09:12:30;;;;;;;;;;;;;;;28.76;21.06;98381.78;5113429;28;19916;-79
2024/02/19 09:14:58;;;;;;;;;;;;;;;28.87;21.15;98381.41;5096826;28;19916;-79
2024/02/19 09:17:24;;;;;;;;;;;;;;;28.82;21.71;98382.00;5098032;28;19967;-79
2024/02/19 09:19:50;;;;;;;;;;;;;;;29.18;20.42;98385.09;5096762;28;19919;-79
2024/02/19 09:22:16;;;;;;;;;;;;;;;28.98;19.85;98371.28;5096463;28;19962;-79
2024/02/19 09:24:46;;;;;;;;;;;;;;;29.08;21.12;98374.97;5116804;28;20384;-79
2024/02/19 09:27:14;;;;;;;;;;;;;;;29.44;20.28;98378.03;5105091;28;19916;-79
2024/02/19 09:29:40;;;;;;;;;;;;;;;29.65;20.48;98367.91;5097129;28;20289;-79
2024/02/19 09:32:07;;;;;;;;;;;;;;;29.62;20.13;98368.81;5096486;28;19912;-79
2024/02/19 09:34:34;;;;;;;;;;;;;;;29.69;20.28;98377.81;5115223;28;20407;-79
2024/02/19 09:37:00;;;;;;;;;;;;;;;29.70;20.10;98365.25;5116678;28;19915;-79
2024/02/19 09:39:27;;;;;;;;;;;;;;;29.76;20.12;98369.09;5112934;28;19916;-79
2024/02/19 09:41:53;;;;;;;;;;;;;;;29.77;19.69;98364.22;5095885;28;20388;-79
2024/02/19 09:44:20;;;;;;;;;;;;;;;29.84;20.03;98366.75;5095844;28;20064;-79
2024/02/19 09:46:48;;;;;;;;;;;;;;;29.89;19.66;98360.47;5101787;28;19916;-79
2024/02/19 09:49:17;;;;;;;;;;;;;;;29.94;20.08;98366.31;5115719;28;19916;-79
2024/02/19 09:51:54;;;;;;;;;;;;;;;29.96;19.55;98365.84;5097382;28;19917;-79
2024/02/19 09:54:21;;;;;;;;;;;;;;;29.84;19.80;98353.41;5095938;28;19920;-79
2024/02/19 09:56:50;;;;;;;;;;;;;;;29.85;20.18;98352.13;5096002;28;20020;-79
2024/02/19 09:59:17;;;;;;;;;;;;;;;29.49;20.04;98354.00;5099703;28;20344;-80
2024/02/19 10:01:43;;;;;;;;;;;;;;;29.17;20.42;98355.22;5116247;28;20391;-79
2024/02/19 10:04:10;;;;;;;;;;;;;;;28.86;20.68;98352.34;5115617;28;19916;-79
2024/02/19 10:06:36;;;;;;;;;;;;;;;29.12;20.87;98353.00;5113320;28;19920;-80
2024/02/19 10:09:11;;;;;;;;;;;;;;;29.16;21.29;98347.97;5095382;28;19916;-80
2024/02/19 10:11:38;;;;;;;;;;;;;;;29.13;21.05;98348.91;5095448;28;19916;-80
2024/02/19 10:14:04;;;;;;;;;;;;;;;29.00;20.60;98336.88;5101291;28;19916;-79
2024/02/19 10:16:30;;;;;;;;;;;;;;;28.95;20.68;98338.28;5115972;28;19916;-79
2024/02/19 10:19:06;;;;;;;;;;;;;;;28.22;21.27;98336.88;5098741;28;19923;-79
2024/02/19 10:21:32;;;;;;;;;;;;;;;28.13;21.60;98341.63;5107532;28;19959;-82
2024/02/19 10:23:58;;;;;;;;;;;;;;;28.46;21.23;98332.38;5114358;28;19919;-81
2024/02/19 10:26:24;;;;;;;;;;;;;;;28.82;20.94;98331.13;5115765;28;19927;-81
2024/02/19 10:28:53;;;;;;;;;;;;;;;28.69;21.03;98328.34;5115610;28;19954;-80
2024/02/19 10:31:19;;;;;;;;;;;;;;;27.90;21.64;98334.31;5115679;28;19955;-79
2024/02/19 10:33:45;;;;;;;;;;;;;;;27.53;22.01;98335.13;5115868;28;19955;-79
2024/02/19 10:36:11;;;;;;;;;;;;;;;27.77;21.99;98323.03;5115593;28;20048;-79
2024/02/19 10:38:37;;;;;;;;;;;;;;;28.00;21.61;98324.75;5101988;28;19977;-79
2024/02/19 10:41:03;;;;;;;;;;;;;;;28.17;21.40;98319.72;5097894;28;19942;-79
2024/02/19 10:43:30;;;;;;;;;;;;;;;28.47;21.04;98314.16;5106012;28;19931;-80
2024/02/19 10:45:57;;;;;;;;;;;;;;;28.64;20.66;98318.44;5095910;28;19965;-79
2024/02/19 10:48:25;;;;;;;;;;;;;;;29.00;20.71;98319.94;5094906;28;20383;-79
2024/02/19 10:50:51;;;;;;;;;;;;;;;28.98;20.49;98326.06;5094806;28;20289;-80
2024/02/19 10:53:19;;;;;;;;;;;;;;;27.97;22.47;98315.13;5094451;28;20018;-79
2024/02/19 10:55:46;;;;;;;;;;;;;;;28.08;21.49;98312.75;5095091;28;20395;-79
2024/02/19 10:58:14;;;;;;;;;;;;;;;28.61;21.02;98312.91;5077628;28;19923;-79
2024/02/19 11:00:41;;;;;;;;;;;;;;;28.11;25.27;98296.91;5094720;28;19969;-79
2024/02/19 11:03:07;;;;;;;;;;;;;;;28.49;21.13;98306.06;5095258;28;20015;-80
2024/02/19 11:05:36;;;;;;;;;;;;;;;28.57;21.38;98298.88;5109614;28;20362;-81
2024/02/19 11:08:02;;;;;;;;;;;;;;;29.57;20.90;98290.22;5114784;28;20096;-81
2024/02/19 11:10:38;;;;;;;;;;;;;;;29.87;20.44;98286.56;5114751;28;20002;-80
2024/02/19 11:13:08;;;;;;;;;;;;;;;29.25;20.71;98280.19;5113968;28;19922;-80
2024/02/19 11:15:41;;;;;;;;;;;;;;;29.35;20.74;98287.47;5113179;28;20211;-80
2024/02/19 11:18:11;;;;;;;;;;;;;;;29.22;20.47;98281.13;5114723;28;20303;-80
2024/02/19 11:20:38;;;;;;;;;;;;;;;29.16;21.01;98278.06;5115049;28;19984;-79
2024/02/19 11:23:04;;;;;;;;;;;;;;;28.99;20.86;98273.09;5114629;28;19927;-79
2024/02/19 11:25:30;;;;;;;;;;;;;;;28.59;21.75;98267.38;5114570;28;19970;-80
2024/02/19 11:27:58;;;;;;;;;;;;;;;28.80;21.43;98280.69;5114150;28;20276;-79
2024/02/19 11:30:25;;;;;;;;;;;;;;;28.33;21.38;98266.69;5094359;28;19946;-80
2024/02/19 11:33:06;;;;;;;;;;;;;;;28.80;21.25;98271.44;5095671;28;20293;-79
2024/02/19 11:35:36;;;;;;;;;;;;;;;27.95;21.75;98268.81;5094007;28;19959;-80
2024/02/19 11:38:02;;;;;;;;;;;;;;;28.56;21.01;98271.09;5093747;28;20370;-80
2024/02/19 11:40:31;;;;;;;;;;;;;;;28.31;21.56;98266.34;5093989;28;19920;-80
2024/02/19 11:42:59;;;;;;;;;;;;;;;28.22;20.94;98271.91;5094036;28;19916;-79
2024/02/19 11:45:26;;;;;;;;;;;;;;;29.06;20.54;98259.47;5097698;28;20418;-79
2024/02/19 11:47:52;;;;;;;;;;;;;;;28.15;21.41;98251.59;5093817;28;19916;-80
2024/02/19 11:50:21;;;;;;;;;;;;;;;28.08;21.25;98252.66;5100013;28;20007;-79
2024/02/19 11:52:48;;;;;;;;;;;;;;;28.22;21.44;98249.31;5114106;28;19919;-79
2024/02/19 11:55:18;;;;;;;;;;;;;;;28.96;21.23;98254.25;5114081;28;20299;-80
2024/02/19 11:57:45;;;;;;;;;;;;;;;28.87;20.53;98254.97;5113978;28;20451;-80
2024/02/19 12:00:13;;;;;;;;;;;;;;;28.46;21.03;98253.28;5113814;28;19915;-80
2024/02/19 12:02:42;;;;;;;;;;;;;;;27.47;22.00;98261.56;5108296;28;20254;-79
2024/02/19 12:05:09;;;;;;;;;;;;;;;27.86;21.63;98244.13;5093261;28;19985;-80
2024/02/19 12:07:36;;;;;;;;;;;;;;;28.11;21.47;98248.13;5112591;28;19916;-79
2024/02/19 12:10:03;;;;;;;;;;;;;;;28.97;20.39;98248.13;5114075;28;19916;-80
2024/02/19 12:12:30;;;;;;;;;;;;;;;28.86;20.46;98233.63;5113455;28;19919;-79
2024/02/19 12:14:58;;;;;;;;;;;;;;;29.36;20.19;98240.94;5113723;28;19999;-79
2024/02/19 12:17:24;;;;;;;;;;;;;;;28.32;20.93;98245.34;5113651;28;19922;-80
2024/02/19 12:19:51;;;;;;;;;;;;;;;28.07;21.04;98245.44;5107016;28;20003;-79
2024/02/19 12:22:17;;;;;;;;;;;;;;;28.97;20.45;98241.69;5093674;28;19916;-80
2024/02/19 12:24:43;;;;;;;;;;;;;;;27.94;21.25;98245.44;5093876;28;20007;-79
2024/02/19 12:27:09;;;;;;;;;;;;;;;28.74;20.65;98249.44;5093408;28;19957;-79
2024/02/19 12:29:35;;;;;;;;;;;;;;;28.33;21.85;98251.78;5093301;28;20052;-80
2024/02/19 12:32:01;;;;;;;;;;;;;;;28.36;20.83;98236.72;5092891;28;20382;-79
2024/02/19 12:34:27;;;;;;;;;;;;;;;27.85;21.51;98247.41;5092763;28;19916;-79
2024/02/19 12:36:53;;;;;;;;;;;;;;;28.07;21.26;98239.81;5093369;28;19922;-79
2024/02/19 12:39:19;;;;;;;;;;;;;;;27.26;21.84;98236.84;5097876;28;19961;-79
2024/02/19 12:41:48;;;;;;;;;;;;;;;28.19;21.11;98233.31;5108415;28;20017;-80
2024/02/19 12:44:14;;;;;;;;;;;;;;;28.31;20.78;98232.44;5117139;28;19977;-80